KCNU

Chanute Martin Johnson Airport

Chanute, Kansas, USA
KCNU 241838Z 2419/2518 16008KT P6SM BKN020 FM242000 16008KT P6SM BKN040 FM251000 VRB05KT P6SM BKN015 FM251500 21010KT P6SM SCT030
Issued Valid From Valid To
Sep-24 @ 18:38 UTC
(an hour ago)
Sep-24 @ 19:00 UTC
(an hour ago)
Sep-25 @ 18:00 UTC
(in 22 hours)
Expired Click to View Sep-24 @ 19:00 to Sep-24 @ 20:00
KCNU 241838Z 2419/2518 16008KT P6SM BKN020
Wind Visibility Clouds
160° at 8 knots Greater than 6 miles
  • Broken at 2,000' AGL
From Sep-24 @ 20:00 to Sep-25 @ 10:00
FM242000 16008KT P6SM BKN040
Wind Visibility Clouds
160° at 8 knots Greater than 6 miles
  • Broken at 4,000' AGL
From Sep-25 @ 10:00 to Sep-25 @ 15:00
FM251000 VRB05KT P6SM BKN015
Wind Visibility Clouds
Variable at 5 knots Greater than 6 miles
  • Broken at 1,500' AGL
From Sep-25 @ 15:00 to Sep-25 @ 18:00
FM251500 21010KT P6SM SCT030
Wind Visibility Clouds
210° at 10 knots Greater than 6 miles
  • Scattered at 3,000' AGL
KCNU 241838Z 2419/2518 16008KT P6SM BKN020 FM242000 16008KT P6SM BKN040 FM251000 VRB05KT P6SM BKN015 FM251500 21010KT P6SM SCT030
Issued Sep-24 @ 18:38 UTC
(an hour ago)
Valid From Sep-24 @ 19:00 UTC
(an hour ago)
Valid To Sep-25 @ 18:00 UTC
(in 22 hours)
Sep-24 @ 19:00 - Sep-24 @ 20:00
Wind Visibility
160° at 8 knots Greater than 6 miles
Clouds
  • Broken at 2,000' AGL
From Sep-24 @ 20:00 - Sep-25 @ 10:00
Wind Visibility
160° at 8 knots Greater than 6 miles
Clouds
  • Broken at 4,000' AGL
From Sep-25 @ 10:00 - Sep-25 @ 15:00
Wind Visibility
Variable at 5 knots Greater than 6 miles
Clouds
  • Broken at 1,500' AGL
From Sep-25 @ 15:00 - Sep-25 @ 18:00
Wind Visibility
210° at 10 knots Greater than 6 miles
Clouds
  • Scattered at 3,000' AGL